Terminal Aerodrome Forecast
Issued by NWS

Home | Current Version | Previous Version | Text Only | Print | Product List | Glossary On
Versions: 1 2 3 4 5 6 7 8 9 10 11 12 13 14 15 16 17 18 19 20 21 22
095
FTUS46 KSEW 252320
TAFSEA
TAF
KSEA 252320Z 2600/2706 20008KT P6SM -RA OVC050
     FM260600 16010KT P6SM -RA OVC040
     FM261200 18012KT P6SM -SHRA BKN025
     FM261800 21012KT P6SM VCSH BKN040=

USA.gov is the U.S. government's official web portal to all federal, state and local government web resources and services.